createdAt,value
2023-05-10T00:01:14.196Z,99.90
2023-05-10T00:03:42.209Z,99.90
2023-05-10T00:06:09.680Z,99.90
2023-05-10T00:08:37.312Z,99.90
2023-05-10T00:11:04.676Z,99.90
2023-05-10T00:13:35.206Z,99.90
2023-05-10T00:16:02.964Z,99.90
2023-05-10T00:18:34.127Z,99.90
2023-05-10T00:21:01.512Z,99.90
2023-05-10T00:23:29.063Z,99.90
2023-05-10T00:25:56.225Z,99.90
2023-05-10T00:28:23.785Z,99.90
2023-05-10T00:30:52.432Z,99.90
2023-05-10T00:33:19.779Z,99.90
2023-05-10T00:35:47.150Z,99.90
2023-05-10T00:38:14.537Z,99.90
2023-05-10T00:40:42.558Z,99.90
2023-05-10T00:43:16.996Z,99.90
2023-05-10T00:45:44.237Z,99.90
2023-05-10T00:48:12.635Z,99.90
2023-05-10T00:50:41.242Z,99.90
2023-05-10T00:53:08.786Z,99.90
2023-05-10T00:55:35.986Z,99.90
2023-05-10T00:58:06.342Z,99.90
2023-05-10T01:00:34.086Z,99.90
2023-05-10T01:03:06.060Z,99.90
2023-05-10T01:05:36.371Z,99.90
2023-05-10T01:08:06.391Z,99.90
2023-05-10T01:10:36.657Z,99.90
2023-05-10T01:13:04.485Z,99.90
2023-05-10T01:15:31.928Z,99.90
2023-05-10T01:18:04.146Z,99.90
2023-05-10T01:20:41.596Z,99.90
2023-05-10T01:23:09.222Z,99.90
2023-05-10T01:25:51.718Z,99.90
2023-05-10T01:28:46.463Z,99.90
2023-05-10T01:31:39.042Z,99.90
2023-05-10T01:34:18.113Z,99.90
2023-05-10T01:36:49.559Z,99.90
2023-05-10T01:39:27.210Z,99.90
2023-05-10T01:42:07.333Z,99.90
2023-05-10T01:44:50.989Z,99.90
2023-05-10T01:47:57.215Z,99.90
2023-05-10T01:50:26.531Z,99.90
2023-05-10T01:52:56.732Z,99.90
2023-05-10T01:55:25.739Z,99.90
2023-05-10T01:57:58.106Z,99.90
2023-05-10T02:00:25.835Z,99.90
2023-05-10T02:02:53.237Z,99.90
2023-05-10T02:05:20.799Z,99.90
2023-05-10T02:07:49.061Z,99.90
2023-05-10T02:10:16.508Z,99.90
2023-05-10T02:12:45.872Z,99.90
2023-05-10T02:15:14.219Z,99.90
2023-05-10T02:17:42.080Z,99.90
2023-05-10T02:20:12.678Z,99.90
2023-05-10T02:25:21.319Z,99.90
2023-05-10T02:27:49.021Z,99.90
2023-05-10T02:30:17.161Z,99.90
2023-05-10T02:32:44.751Z,99.90
2023-05-10T02:35:12.161Z,99.90
2023-05-10T02:37:39.414Z,99.90
2023-05-10T02:40:07.388Z,99.90
2023-05-10T02:42:36.474Z,99.90
2023-05-10T02:45:08.971Z,99.90
2023-05-10T02:47:36.528Z,99.90
2023-05-10T02:50:06.069Z,99.90
2023-05-10T02:52:41.976Z,99.90
2023-05-10T02:55:13.556Z,99.90
2023-05-10T02:57:57.005Z,99.90
2023-05-10T03:00:25.274Z,99.90
2023-05-10T03:02:52.961Z,99.90
2023-05-10T03:05:21.396Z,99.90
2023-05-10T03:07:49.551Z,99.90
2023-05-10T03:10:17.430Z,99.90
2023-05-10T03:13:16.576Z,99.90
2023-05-10T03:15:50.280Z,99.90
2023-05-10T03:18:24.800Z,99.90
2023-05-10T03:20:56.640Z,99.90
2023-05-10T03:23:34.031Z,99.90
2023-05-10T03:26:04.607Z,99.90
2023-05-10T03:28:31.874Z,99.90
2023-05-10T03:30:59.644Z,99.90
2023-05-10T03:33:26.982Z,99.90
2023-05-10T03:35:54.349Z,99.90
2023-05-10T03:38:21.708Z,99.90
2023-05-10T03:40:49.146Z,99.90
2023-05-10T03:43:16.560Z,99.90
2023-05-10T03:45:43.985Z,99.90
2023-05-10T03:48:11.237Z,99.90
2023-05-10T03:50:38.792Z,99.90
2023-05-10T03:53:06.354Z,99.90
2023-05-10T03:55:37.496Z,99.90
2023-05-10T03:58:04.783Z,99.90
2023-05-10T04:00:37.064Z,99.90
2023-05-10T04:03:04.854Z,99.90
2023-05-10T04:05:32.054Z,99.90
2023-05-10T04:08:00.171Z,99.90
2023-05-10T04:10:27.510Z,99.90
2023-05-10T04:12:54.770Z,99.90
2023-05-10T04:15:22.306Z,99.90
2023-05-10T04:17:49.822Z,99.90
2023-05-10T04:20:17.490Z,99.90
2023-05-10T04:22:44.838Z,99.90
2023-05-10T04:25:12.193Z,99.90
2023-05-10T04:27:39.284Z,99.90
2023-05-10T04:30:08.337Z,99.90
2023-05-10T04:32:35.577Z,99.90
2023-05-10T04:35:05.144Z,99.90
2023-05-10T04:37:34.965Z,99.90
2023-05-10T04:40:04.676Z,99.90
2023-05-10T04:42:32.008Z,99.90
2023-05-10T04:45:00.359Z,99.90
2023-05-10T04:47:27.502Z,99.90
2023-05-10T04:49:54.650Z,99.90
2023-05-10T04:52:22.082Z,99.90
2023-05-10T04:54:49.725Z,99.90
2023-05-10T04:57:17.126Z,99.90
2023-05-10T04:59:44.577Z,99.90
2023-05-10T05:02:11.937Z,99.90
2023-05-10T05:04:39.153Z,99.90
2023-05-10T05:07:06.543Z,99.90
2023-05-10T05:09:33.971Z,99.90
2023-05-10T05:12:01.668Z,99.90
2023-05-10T05:14:28.961Z,99.90
2023-05-10T05:16:56.570Z,99.90
2023-05-10T05:19:24.453Z,99.90
2023-05-10T05:21:51.868Z,99.90
2023-05-10T05:24:19.050Z,99.90
2023-05-10T05:26:46.650Z,99.90
2023-05-10T05:29:14.016Z,99.90
2023-05-10T05:31:41.560Z,99.90
2023-05-10T05:34:08.906Z,99.90
2023-05-10T05:36:39.631Z,99.90
2023-05-10T05:39:06.856Z,99.90
2023-05-10T05:41:35.425Z,99.90
2023-05-10T05:44:02.791Z,99.90
2023-05-10T05:46:29.894Z,99.90
2023-05-10T05:48:57.402Z,99.90
2023-05-10T05:51:25.276Z,99.90
2023-05-10T05:53:52.934Z,99.90
2023-05-10T05:56:25.554Z,99.90
2023-05-10T05:58:54.207Z,99.90
2023-05-10T06:01:21.701Z,99.90
2023-05-10T06:03:50.900Z,99.90
2023-05-10T06:06:19.580Z,99.90
2023-05-10T06:08:46.797Z,99.90
2023-05-10T06:11:14.152Z,99.90
2023-05-10T06:13:41.557Z,99.90
2023-05-10T06:16:08.889Z,99.90
2023-05-10T06:18:36.628Z,99.90
2023-05-10T06:21:07.253Z,99.90
2023-05-10T06:23:37.852Z,99.90
2023-05-10T06:26:05.336Z,99.90
2023-05-10T06:28:36.230Z,99.90
2023-05-10T06:31:06.878Z,99.90
2023-05-10T06:33:37.590Z,99.90
2023-05-10T06:36:05.452Z,99.90
2023-05-10T06:38:32.953Z,99.90
2023-05-10T06:41:00.672Z,99.90
2023-05-10T06:43:29.820Z,99.90
2023-05-10T06:45:57.172Z,99.90
2023-05-10T06:48:24.478Z,99.90
2023-05-10T06:50:51.841Z,99.10
2023-05-10T06:53:19.017Z,98.40
2023-05-10T06:55:46.853Z,99.80
2023-05-10T06:58:13.998Z,99.90
2023-05-10T07:00:43.999Z,99.90
2023-05-10T07:03:12.375Z,99.90
2023-05-10T07:05:39.967Z,98.60
2023-05-10T07:08:07.304Z,97.00
2023-05-10T07:10:35.601Z,96.00
2023-05-10T07:13:03.148Z,96.40
2023-05-10T07:15:30.654Z,96.90
2023-05-10T07:17:58.242Z,99.90
2023-05-10T07:20:26.232Z,95.00
2023-05-10T07:22:53.447Z,99.70
2023-05-10T07:25:21.000Z,96.10
2023-05-10T07:27:49.936Z,95.20
2023-05-10T07:30:17.464Z,95.00
2023-05-10T07:32:45.496Z,95.90
2023-05-10T07:35:12.937Z,94.40
2023-05-10T07:37:40.132Z,94.20
2023-05-10T07:40:08.412Z,92.50
2023-05-10T07:42:35.840Z,92.20
2023-05-10T07:45:03.499Z,96.00
2023-05-10T07:47:31.183Z,96.60
2023-05-10T07:49:58.564Z,92.60
2023-05-10T07:52:26.050Z,90.70
2023-05-10T07:54:53.846Z,90.00
2023-05-10T07:57:21.099Z,84.00
2023-05-10T07:59:48.743Z,82.40
2023-05-10T08:02:16.122Z,86.90
2023-05-10T08:04:43.600Z,82.50
2023-05-10T08:07:11.908Z,82.70
2023-05-10T08:09:39.799Z,78.70
2023-05-10T08:12:07.350Z,82.50
2023-05-10T08:14:40.518Z,82.20
2023-05-10T08:17:07.881Z,84.80
2023-05-10T08:19:36.788Z,86.80
2023-05-10T08:22:10.224Z,81.50
2023-05-10T08:24:40.030Z,77.90
2023-05-10T08:27:07.643Z,78.50
2023-05-10T08:29:46.283Z,75.70
2023-05-10T08:32:29.622Z,75.90
2023-05-10T08:35:00.887Z,65.30
2023-05-10T08:37:31.026Z,73.10
2023-05-10T08:39:58.877Z,69.30
2023-05-10T08:42:26.666Z,69.90
2023-05-10T08:44:54.152Z,74.20
2023-05-10T08:47:21.434Z,71.00
2023-05-10T08:49:52.635Z,64.60
2023-05-10T08:52:20.381Z,71.10
2023-05-10T08:54:48.795Z,72.20
2023-05-10T08:57:16.232Z,71.50
2023-05-10T08:59:43.863Z,73.80
2023-05-10T09:02:15.210Z,71.40
2023-05-10T09:04:44.573Z,75.90
2023-05-10T09:07:12.131Z,73.40
2023-05-10T09:09:39.655Z,68.50
2023-05-10T09:12:12.705Z,71.20
2023-05-10T09:14:40.593Z,71.80
2023-05-10T09:17:08.955Z,62.70
2023-05-10T09:19:36.390Z,59.70
2023-05-10T09:22:09.233Z,61.60
2023-05-10T09:24:38.269Z,60.80
2023-05-10T09:27:05.680Z,57.00
2023-05-10T09:29:44.161Z,59.10
2023-05-10T09:32:13.572Z,58.90
2023-05-10T09:34:42.325Z,61.60
2023-05-10T09:37:10.079Z,53.50
2023-05-10T09:39:38.390Z,54.20
2023-05-10T09:42:10.148Z,56.10
2023-05-10T09:44:39.364Z,59.50
2023-05-10T09:47:06.891Z,46.40
2023-05-10T09:49:34.871Z,49.20
2023-05-10T09:52:06.871Z,49.50
2023-05-10T09:54:35.176Z,47.70
2023-05-10T09:57:02.928Z,44.90
2023-05-10T09:59:30.898Z,48.90
2023-05-10T10:01:59.444Z,43.00
2023-05-10T10:04:27.362Z,48.30
2023-05-10T10:07:05.548Z,46.20
2023-05-10T10:09:33.811Z,46.40
2023-05-10T10:12:05.417Z,42.80
2023-05-10T10:14:33.237Z,40.90
2023-05-10T10:19:33.269Z,39.10
2023-05-10T10:22:01.989Z,38.10
2023-05-10T10:24:33.353Z,36.10
2023-05-10T10:27:27.450Z,39.70
2023-05-10T10:30:15.041Z,30.90
2023-05-10T10:32:54.788Z,35.50
2023-05-10T10:35:22.461Z,33.50
2023-05-10T10:37:51.459Z,35.60
2023-05-10T10:40:29.823Z,30.80
2023-05-10T10:42:58.518Z,25.60
2023-05-10T10:45:26.174Z,28.90
2023-05-10T10:48:24.969Z,28.60
2023-05-10T10:50:59.217Z,25.90
2023-05-10T10:53:30.239Z,25.30
2023-05-10T10:56:10.813Z,26.80
2023-05-10T10:58:39.293Z,22.30
2023-05-10T11:01:19.559Z,24.90
2023-05-10T11:04:00.155Z,20.20
2023-05-10T11:06:35.652Z,23.80
2023-05-10T11:09:10.509Z,21.60
2023-05-10T11:11:39.054Z,13.80
2023-05-10T11:14:08.344Z,20.90
2023-05-10T11:16:43.878Z,17.60
2023-05-10T11:19:21.692Z,16.60
2023-05-10T11:22:15.175Z,11.70
2023-05-10T11:24:43.294Z,13.20
2023-05-10T11:27:10.672Z,16.30
2023-05-10T11:29:37.972Z,12.90
2023-05-10T11:32:09.404Z,11.70
2023-05-10T11:34:37.296Z,11.60
2023-05-10T11:37:04.710Z,9.80
2023-05-10T11:39:34.828Z,7.50
2023-05-10T11:42:05.159Z,4.10
2023-05-10T11:44:34.518Z,1.50
2023-05-10T11:47:03.025Z,4.20
2023-05-10T11:49:30.560Z,1.00
2023-05-10T11:52:08.427Z,1.00
2023-05-10T11:54:39.238Z,1.00
2023-05-10T11:57:06.468Z,1.00
2023-05-10T11:59:37.620Z,1.00
2023-05-10T12:02:05.100Z,1.00
2023-05-10T12:04:35.261Z,1.00
2023-05-10T12:07:06.508Z,1.00
2023-05-10T12:09:43.700Z,1.00
2023-05-10T12:12:12.025Z,1.00
2023-05-10T12:14:39.376Z,1.00
2023-05-10T12:17:06.616Z,1.00
2023-05-10T12:19:40.397Z,1.00
2023-05-10T12:22:07.782Z,1.00
2023-05-10T12:24:39.422Z,1.00
2023-05-10T12:27:09.432Z,1.00
2023-05-10T12:29:36.830Z,1.00
2023-05-10T12:32:04.883Z,1.00
2023-05-10T12:34:37.276Z,1.00
2023-05-10T12:37:05.053Z,1.00
2023-05-10T12:39:50.558Z,1.00
2023-05-10T12:42:20.217Z,1.00
2023-05-10T12:44:47.908Z,1.00
2023-05-10T12:47:15.358Z,1.00
2023-05-10T12:49:42.750Z,1.00
2023-05-10T12:52:10.228Z,1.00
2023-05-10T12:54:37.739Z,1.00
2023-05-10T12:57:04.877Z,1.00
2023-05-10T12:59:32.090Z,1.00
2023-05-10T13:02:00.310Z,1.00
2023-05-10T13:04:27.826Z,1.00
2023-05-10T13:06:59.541Z,1.00
2023-05-10T13:09:28.574Z,1.00
2023-05-10T13:11:56.589Z,1.00
2023-05-10T13:14:23.904Z,1.00
2023-05-10T13:16:51.297Z,1.00
2023-05-10T13:19:19.321Z,1.00
2023-05-10T13:21:46.830Z,1.00
2023-05-10T13:24:18.327Z,1.00
2023-05-10T13:26:45.574Z,1.00
2023-05-10T13:29:12.671Z,1.00
2023-05-10T13:31:39.966Z,1.00
2023-05-10T13:34:07.541Z,1.00
2023-05-10T13:36:34.998Z,1.00
2023-05-10T13:39:04.778Z,1.00
2023-05-10T13:41:35.372Z,1.00
2023-05-10T13:44:02.915Z,1.00
2023-05-10T13:46:31.655Z,1.00
2023-05-10T13:48:59.412Z,1.00
2023-05-10T13:51:26.851Z,1.00
2023-05-10T13:53:54.286Z,1.00
2023-05-10T13:56:21.779Z,7.90
2023-05-10T13:58:49.291Z,18.70
2023-05-10T14:01:16.986Z,23.50
2023-05-10T14:03:44.568Z,20.40
2023-05-10T14:06:12.158Z,28.80
2023-05-10T14:08:39.474Z,52.00
2023-05-10T14:11:06.980Z,71.40
2023-05-10T14:13:35.139Z,73.30
2023-05-10T14:16:04.896Z,76.50
2023-05-10T14:18:35.055Z,80.40
2023-05-10T14:21:03.762Z,85.10
2023-05-10T14:23:31.684Z,89.20
2023-05-10T14:25:58.980Z,77.80
2023-05-10T14:28:26.539Z,78.90
2023-05-10T14:30:53.855Z,74.10
2023-05-10T14:33:22.074Z,80.00
2023-05-10T14:35:49.478Z,69.30
2023-05-10T14:38:17.185Z,59.40
2023-05-10T14:40:44.356Z,50.10
2023-05-10T14:43:11.697Z,57.40
2023-05-10T14:45:39.162Z,50.30
2023-05-10T14:48:06.961Z,44.70
2023-05-10T14:50:36.672Z,53.80
2023-05-10T14:53:05.040Z,36.80
2023-05-10T14:55:32.873Z,37.40
2023-05-10T14:58:08.877Z,38.10
2023-05-10T15:00:40.689Z,37.30
2023-05-10T15:03:08.651Z,40.20
2023-05-10T15:05:38.564Z,27.00
2023-05-10T15:08:06.941Z,23.80
2023-05-10T15:10:38.570Z,31.20
2023-05-10T15:13:06.268Z,26.10
2023-05-10T15:15:34.454Z,30.00
2023-05-10T15:18:02.161Z,32.10
2023-05-10T15:20:30.219Z,31.20
2023-05-10T15:22:57.561Z,35.20
2023-05-10T15:25:25.288Z,52.00
2023-05-10T15:27:52.602Z,55.60
2023-05-10T15:30:19.886Z,53.80
2023-05-10T15:32:47.643Z,50.60
2023-05-10T15:35:15.338Z,44.80
2023-05-10T15:37:47.306Z,43.80
2023-05-10T15:40:15.482Z,37.70
2023-05-10T15:42:43.065Z,33.40
2023-05-10T15:45:11.923Z,30.00
2023-05-10T15:47:40.926Z,30.20
2023-05-10T15:50:08.830Z,30.00
2023-05-10T15:52:36.442Z,29.20
2023-05-10T15:55:13.657Z,25.50
2023-05-10T15:57:41.873Z,24.80
2023-05-10T16:00:10.222Z,19.90
2023-05-10T16:02:43.975Z,22.40
2023-05-10T16:05:11.866Z,25.80
2023-05-10T16:07:40.426Z,31.10
2023-05-10T16:10:10.144Z,32.80
2023-05-10T16:12:38.159Z,34.50
2023-05-10T16:15:06.914Z,32.10
2023-05-10T16:17:34.973Z,35.10
2023-05-10T16:20:04.600Z,32.40
2023-05-10T16:22:32.771Z,32.30
2023-05-10T16:25:00.249Z,32.70
2023-05-10T16:27:30.464Z,40.70
2023-05-10T16:29:58.654Z,40.60
2023-05-10T16:32:26.299Z,40.50
2023-05-10T16:34:53.890Z,45.30
2023-05-10T16:37:22.253Z,51.50
2023-05-10T16:39:49.998Z,59.80
2023-05-10T16:42:17.825Z,65.40
2023-05-10T16:44:47.638Z,70.90
2023-05-10T16:47:15.433Z,76.20
2023-05-10T16:49:45.903Z,83.50
2023-05-10T16:52:17.464Z,80.10
2023-05-10T16:54:46.139Z,85.70
2023-05-10T16:57:13.527Z,85.90
2023-05-10T16:59:41.156Z,89.60
2023-05-10T17:02:09.012Z,95.60
2023-05-10T17:04:37.012Z,97.30
2023-05-10T17:07:09.243Z,99.00
2023-05-10T17:09:37.543Z,96.10
2023-05-10T17:12:04.994Z,99.10
2023-05-10T17:14:33.203Z,99.50
2023-05-10T17:17:06.821Z,99.90
2023-05-10T17:19:34.660Z,97.90
2023-05-10T17:22:07.007Z,99.90
2023-05-10T17:24:35.132Z,99.90
2023-05-10T17:27:04.228Z,99.90
2023-05-10T17:29:33.893Z,99.90
2023-05-10T17:32:02.656Z,99.90
2023-05-10T17:34:30.666Z,99.90
2023-05-10T17:36:58.259Z,99.90
2023-05-10T17:39:25.829Z,99.90
2023-05-10T17:41:53.988Z,99.90
2023-05-10T17:44:21.283Z,99.90
2023-05-10T17:46:49.208Z,99.90
2023-05-10T17:49:17.988Z,99.90
2023-05-10T17:51:48.358Z,99.90
2023-05-10T17:54:16.797Z,99.90
2023-05-10T17:56:44.265Z,99.90
2023-05-10T17:59:11.498Z,99.90
2023-05-10T18:01:39.795Z,99.90
2023-05-10T18:04:08.411Z,99.90
2023-05-10T18:06:39.415Z,99.90
2023-05-10T18:09:08.393Z,99.90
2023-05-10T18:11:36.814Z,99.90
2023-05-10T18:14:07.131Z,99.90
2023-05-10T18:16:35.784Z,99.90
2023-05-10T18:19:03.014Z,99.90
2023-05-10T18:21:30.582Z,99.90
2023-05-10T18:23:58.826Z,99.90
2023-05-10T18:26:26.947Z,99.90
2023-05-10T18:28:54.783Z,99.90
2023-05-10T18:31:22.329Z,99.90
2023-05-10T18:33:49.692Z,99.90
2023-05-10T18:36:17.245Z,99.90
2023-05-10T18:38:45.968Z,99.90
2023-05-10T18:41:14.939Z,99.90
2023-05-10T18:43:43.129Z,99.90
2023-05-10T18:46:11.357Z,99.90
2023-05-10T18:48:39.142Z,99.90
2023-05-10T18:51:07.121Z,99.90
2023-05-10T18:53:34.718Z,99.90
2023-05-10T18:56:04.836Z,99.90
2023-05-10T18:58:32.803Z,99.90
2023-05-10T19:01:01.178Z,99.90
2023-05-10T19:03:30.020Z,99.90
2023-05-10T19:06:00.557Z,99.90
2023-05-10T19:08:27.720Z,99.90
2023-05-10T19:10:55.166Z,99.90
2023-05-10T19:13:23.098Z,99.90
2023-05-10T19:16:12.744Z,99.90
2023-05-10T19:18:40.921Z,99.90
2023-05-10T19:21:10.933Z,99.90
2023-05-10T19:23:44.394Z,99.90
2023-05-10T19:26:15.868Z,99.90
2023-05-10T19:28:44.296Z,99.90
2023-05-10T19:31:12.395Z,99.90
2023-05-10T19:33:40.808Z,99.90
2023-05-10T19:36:09.159Z,99.90
2023-05-10T19:38:37.757Z,99.90
2023-05-10T19:41:06.143Z,99.90
2023-05-10T19:43:34.642Z,99.90
2023-05-10T19:46:03.464Z,99.90
2023-05-10T19:48:30.985Z,99.90
2023-05-10T19:51:07.702Z,99.90
2023-05-10T19:53:36.756Z,99.90
2023-05-10T19:56:09.233Z,99.90
2023-05-10T19:58:37.556Z,99.90
2023-05-10T20:01:08.391Z,99.90
2023-05-10T20:03:39.077Z,99.90
2023-05-10T20:06:07.048Z,99.90
2023-05-10T20:08:37.712Z,99.90
2023-05-10T20:11:05.706Z,99.90
2023-05-10T20:13:34.284Z,99.90
2023-05-10T20:16:03.885Z,99.90
2023-05-10T20:18:31.313Z,99.90
2023-05-10T20:20:59.774Z,99.90
2023-05-10T20:23:35.389Z,99.90
2023-05-10T20:26:09.239Z,99.90
2023-05-10T20:28:36.864Z,99.90
2023-05-10T20:31:07.958Z,99.90
2023-05-10T20:33:35.503Z,99.90
2023-05-10T20:36:04.946Z,99.90
2023-05-10T20:38:35.059Z,99.90
2023-05-10T20:41:02.819Z,99.90
2023-05-10T20:43:30.112Z,99.90
2023-05-10T20:45:57.303Z,99.90
2023-05-10T20:48:24.933Z,99.90
2023-05-10T20:50:52.424Z,99.90
2023-05-10T20:53:20.830Z,99.90
2023-05-10T20:55:50.233Z,99.90
2023-05-10T20:58:18.057Z,99.90
2023-05-10T21:00:49.453Z,99.90
2023-05-10T21:03:17.416Z,99.90
2023-05-10T21:05:45.068Z,99.90
2023-05-10T21:08:12.219Z,99.90
2023-05-10T21:10:39.764Z,99.90
2023-05-10T21:13:07.150Z,99.90
2023-05-10T21:15:34.668Z,99.90
2023-05-10T21:18:01.894Z,99.90
2023-05-10T21:20:34.777Z,99.90
2023-05-10T21:23:03.231Z,99.90
2023-05-10T21:25:31.024Z,99.90
2023-05-10T21:27:59.720Z,99.90
2023-05-10T21:30:27.256Z,99.90
2023-05-10T21:32:59.997Z,99.90
2023-05-10T21:35:27.349Z,99.90
2023-05-10T21:37:54.564Z,99.90
2023-05-10T21:40:22.542Z,99.90
2023-05-10T21:42:50.604Z,99.90
2023-05-10T21:45:18.271Z,99.90
2023-05-10T21:47:45.955Z,99.90
2023-05-10T21:50:13.847Z,99.90
2023-05-10T21:52:41.352Z,99.90
2023-05-10T21:55:10.125Z,99.90
2023-05-10T21:57:37.450Z,99.90
2023-05-10T22:00:05.132Z,99.90
2023-05-10T22:02:34.552Z,99.90
2023-05-10T22:05:05.292Z,99.90
2023-05-10T22:07:33.090Z,99.90
2023-05-10T22:10:00.652Z,99.90
2023-05-10T22:12:28.093Z,99.90
2023-05-10T22:15:09.425Z,99.90
2023-05-10T22:17:40.449Z,99.90
2023-05-10T22:20:08.103Z,99.90
2023-05-10T22:22:35.496Z,99.90
2023-05-10T22:25:02.933Z,99.90
2023-05-10T22:27:30.294Z,99.90
2023-05-10T22:29:57.510Z,99.90
2023-05-10T22:32:31.425Z,99.90
2023-05-10T22:35:07.803Z,99.90
2023-05-10T22:37:35.184Z,99.90
2023-05-10T22:40:05.063Z,99.90
2023-05-10T22:42:33.930Z,99.90
2023-05-10T22:45:01.293Z,99.90
2023-05-10T22:47:28.589Z,99.90
2023-05-10T22:49:56.251Z,99.90
2023-05-10T22:52:23.818Z,99.90
2023-05-10T22:54:51.203Z,99.90
2023-05-10T22:57:18.799Z,99.90
2023-05-10T22:59:46.369Z,99.90
2023-05-10T23:02:14.679Z,99.90
2023-05-10T23:04:42.011Z,99.90
2023-05-10T23:07:09.488Z,99.90
2023-05-10T23:09:36.633Z,99.90
2023-05-10T23:12:04.604Z,99.90
2023-05-10T23:14:34.830Z,99.90
2023-05-10T23:17:04.515Z,99.90
2023-05-10T23:19:31.883Z,99.90
2023-05-10T23:21:59.816Z,99.90
2023-05-10T23:24:27.135Z,99.90
2023-05-10T23:26:54.407Z,99.90
2023-05-10T23:29:21.764Z,99.90
2023-05-10T23:31:49.545Z,99.90
2023-05-10T23:34:16.861Z,99.90
2023-05-10T23:36:44.338Z,99.90
2023-05-10T23:39:12.155Z,99.90
2023-05-10T23:41:39.510Z,99.90
2023-05-10T23:44:07.074Z,99.90
2023-05-10T23:46:34.390Z,99.90
2023-05-10T23:49:01.785Z,99.90
2023-05-10T23:51:29.040Z,99.90
2023-05-10T23:53:56.308Z,99.90
2023-05-10T23:56:23.507Z,99.90
2023-05-10T23:58:50.952Z,99.90
